Time;durP1;ratioP1;P1;durP2;ratioP2;P2;SDS_P1;SDS_P2;PMS_P1;PMS_P2;Temp;Humidity;BMP_temperature;BMP_pressure;BME280_temperature;BME280_humidity;BME280_pressure;Samples;Min_cycle;Max_cycle;Signal;HPM_P1;HPM_P2
2022/01/21 00:00:50;;;;;;;13.25;2.45;;;1.70;99.90;;;;;;4942721;29;20562;-78
2022/01/21 00:03:15;;;;;;;11.57;2.58;;;1.80;99.90;;;;;;4958689;29;20379;-78
2022/01/21 00:05:41;;;;;;;5.20;1.42;;;1.80;99.90;;;;;;4958689;28;20121;-78
2022/01/21 00:08:06;;;;;;;9.93;2.13;;;1.80;99.90;;;;;;4958608;28;20098;-78
2022/01/21 00:10:32;;;;;;;18.95;2.97;;;1.70;99.90;;;;;;4958556;28;20122;-78
2022/01/21 00:12:58;;;;;;;10.00;1.77;;;1.80;99.90;;;;;;4958572;28;20050;-78
2022/01/21 00:15:23;;;;;;;12.45;2.45;;;1.80;99.90;;;;;;4959613;28;20054;-78
2022/01/21 00:17:49;;;;;;;13.75;1.63;;;1.80;99.90;;;;;;4959893;28;20085;-78
2022/01/21 00:31:11;;;;;;;13.02;1.88;;;1.90;99.90;;;;;;4958508;29;20134;-78
2022/01/21 00:33:37;;;;;;;9.85;1.45;;;1.90;99.90;;;;;;4942454;29;20497;-78
2022/01/21 00:36:04;;;;;;;16.17;1.95;;;2.00;99.90;;;;;;4958528;28;20058;-78
2022/01/21 00:38:31;;;;;;;6.22;1.20;;;2.00;99.90;;;;;;4958572;29;20055;-78
2022/01/21 00:40:59;;;;;;;8.13;1.58;;;2.10;99.90;;;;;;4942705;29;20530;-78
2022/01/21 00:43:32;;;;;;;12.80;1.48;;;2.10;99.90;;;;;;4956584;28;20190;-78
2022/01/21 00:46:00;;;;;;;11.50;1.58;;;2.20;99.90;;;;;;4955318;29;20054;-78
2022/01/21 00:48:26;;;;;;;6.90;1.58;;;2.20;99.90;;;;;;4955258;29;20122;-78
2022/01/21 00:50:53;;;;;;;13.52;1.77;;;2.20;99.90;;;;;;4955177;29;20083;-78
2022/01/21 00:53:19;;;;;;;7.20;1.35;;;2.20;99.90;;;;;;4956498;28;20050;-78
2022/01/21 00:55:45;;;;;;;6.93;2.50;;;2.20;99.90;;;;;;4954961;29;20051;-78
2022/01/21 00:58:10;;;;;;;10.18;1.15;;;2.20;99.90;;;;;;4955937;29;20053;-79
2022/01/21 01:00:36;;;;;;;8.98;1.35;;;2.10;99.90;;;;;;4956640;29;20512;-79
2022/01/21 01:03:03;;;;;;;10.77;1.88;;;2.10;99.90;;;;;;4957011;29;20126;-79
2022/01/21 01:05:29;;;;;;;9.57;1.23;;;2.10;99.90;;;;;;4957947;29;20058;-79
2022/01/21 01:07:55;;;;;;;5.97;1.60;;;2.00;99.90;;;;;;4957830;29;20267;-79
2022/01/21 01:10:40;;;;;;;11.50;1.40;;;1.90;99.90;;;;;;4958094;29;20039;-79
2022/01/21 01:21:21;;;;;;;5.10;1.10;;;1.90;99.90;;;;;;4957479;28;20134;-79
2022/01/21 01:24:03;;;;;;;3.22;0.95;;;1.80;99.90;;;;;;4957492;28;20117;-79
2022/01/21 01:29:14;;;;;;;14.32;1.83;;;1.90;99.90;;;;;;4956393;29;20427;-79
2022/01/21 01:31:39;;;;;;;12.63;1.90;;;1.90;99.90;;;;;;4956532;29;20051;-79
2022/01/21 01:34:05;;;;;;;4.90;1.15;;;1.90;99.90;;;;;;4956156;29;20047;-79
2022/01/21 01:36:31;;;;;;;4.35;1.02;;;1.80;99.90;;;;;;4956344;29;20035;-79
2022/01/21 01:41:49;;;;;;;10.50;1.42;;;1.80;99.90;;;;;;4957159;28;20418;-79
2022/01/21 01:49:43;;;;;;;10.80;1.88;;;1.80;99.90;;;;;;4957370;28;20406;-79
2022/01/21 01:52:12;;;;;;;9.63;1.30;;;1.80;99.90;;;;;;4956427;29;20039;-79
2022/01/21 01:54:43;;;;;;;13.00;1.58;;;1.80;99.90;;;;;;4939648;29;20059;-79
2022/01/21 01:57:09;;;;;;;6.43;1.02;;;1.80;99.90;;;;;;4955397;29;20051;-79
2022/01/21 01:59:35;;;;;;;7.72;1.50;;;1.80;99.90;;;;;;4955296;29;20043;-79
2022/01/21 02:02:12;;;;;;;7.80;1.60;;;1.80;99.90;;;;;;4939845;29;20050;-79
2022/01/21 02:04:42;;;;;;;10.13;1.65;;;1.90;99.90;;;;;;4955606;29;20081;-79
2022/01/21 02:07:08;;;;;;;10.63;1.45;;;1.90;99.90;;;;;;4955190;29;20035;-79
2022/01/21 02:09:35;;;;;;;6.38;1.17;;;1.90;99.90;;;;;;4954633;29;20040;-79
2022/01/21 02:12:01;;;;;;;9.68;1.42;;;2.00;99.90;;;;;;4955083;29;20133;-79
2022/01/21 02:14:34;;;;;;;5.88;1.55;;;2.00;99.90;;;;;;4956779;28;20043;-79
2022/01/21 02:22:18;;;;;;;4.28;1.27;;;2.10;99.90;;;;;;4955146;29;20122;-79
2022/01/21 02:24:59;;;;;;;4.40;1.58;;;2.20;99.90;;;;;;4955475;29;20134;-79
2022/01/21 02:27:26;;;;;;;5.93;1.30;;;2.20;99.90;;;;;;4955660;28;20043;-79
2022/01/21 02:29:58;;;;;;;10.80;1.33;;;2.10;99.90;;;;;;4955141;29;20398;-79
2022/01/21 02:32:24;;;;;;;;;;;1.90;99.90;;;;;;4939277;29;20050;-79
2022/01/21 02:34:49;;;;;;;5.25;0.82;;;1.90;99.90;;;;;;4955076;29;20016;-79
2022/01/21 02:37:17;;;;;;;5.28;1.60;;;1.80;99.90;;;;;;4954786;29;20498;-79
2022/01/21 02:39:43;;;;;;;7.75;1.65;;;1.80;99.90;;;;;;4955233;29;20038;-79
2022/01/21 02:42:09;;;;;;;4.85;1.13;;;1.70;99.90;;;;;;4956727;28;20487;-79
2022/01/21 02:44:35;;;;;;;7.30;0.95;;;1.70;99.90;;;;;;4956383;29;20046;-79
2022/01/21 02:47:03;;;;;;;10.05;1.75;;;1.60;99.90;;;;;;4956063;29;20173;-79
2022/01/21 02:49:29;;;;;;;3.45;0.90;;;1.60;99.90;;;;;;4956281;28;20038;-79
2022/01/21 02:51:57;;;;;;;6.28;1.10;;;1.50;99.90;;;;;;4956422;29;20129;-79
2022/01/21 02:54:23;;;;;;;6.97;1.80;;;1.50;99.90;;;;;;4956667;28;20031;-79
2022/01/21 02:56:51;;;;;;;7.45;1.20;;;1.50;99.90;;;;;;4938736;29;20090;-79
2022/01/21 02:59:17;;;;;;;7.38;0.95;;;1.40;99.90;;;;;;4954576;29;20046;-79
2022/01/21 03:01:43;;;;;;;10.68;1.13;;;1.40;99.90;;;;;;4955730;28;20046;-79
2022/01/21 03:04:14;;;;;;;3.55;1.20;;;1.40;99.90;;;;;;4954162;29;20044;-79
2022/01/21 03:06:40;;;;;;;3.90;1.33;;;1.50;99.90;;;;;;4953933;28;20055;-79
2022/01/21 03:09:07;;;;;;;8.73;1.30;;;1.60;99.90;;;;;;4956070;29;20045;-79
2022/01/21 03:11:34;;;;;;;7.07;1.17;;;1.60;99.90;;;;;;4953921;29;20047;-79
2022/01/21 03:13:59;;;;;;;10.70;1.17;;;1.60;99.90;;;;;;4955303;29;20118;-79
2022/01/21 03:16:25;;;;;;;4.80;1.25;;;1.60;99.90;;;;;;4955771;28;20082;-79
2022/01/21 03:18:51;;;;;;;7.47;1.33;;;1.60;99.90;;;;;;4955917;29;20046;-79
2022/01/21 03:21:17;;;;;;;8.57;1.00;;;1.60;99.90;;;;;;4954746;29;20046;-79
2022/01/21 03:23:49;;;;;;;12.95;1.65;;;1.60;99.90;;;;;;4954751;28;20098;-78
2022/01/21 03:26:16;;;;;;;7.80;1.60;;;1.60;99.90;;;;;;4953681;28;20040;-78
2022/01/21 03:28:43;;;;;;;5.53;1.25;;;1.50;99.90;;;;;;4936777;29;20036;-78
2022/01/21 03:31:08;;;;;;;4.40;1.40;;;1.50;99.90;;;;;;4952814;29;20047;-78
2022/01/21 03:33:34;;;;;;;1.60;0.60;;;1.40;99.90;;;;;;4952885;29;20043;-78
2022/01/21 03:35:59;;;;;;;12.43;1.58;;;1.40;99.90;;;;;;4952296;29;20097;-78
2022/01/21 03:38:26;;;;;;;8.75;1.17;;;1.40;99.90;;;;;;4952558;29;20049;-78
2022/01/21 03:40:53;;;;;;;7.75;0.82;;;1.50;99.90;;;;;;4952462;29;20052;-78
2022/01/21 03:43:20;;;;;;;4.93;1.33;;;1.60;99.90;;;;;;4952379;29;20043;-78
2022/01/21 03:45:46;;;;;;;9.82;1.38;;;1.70;99.90;;;;;;4952255;29;20052;-78
2022/01/21 03:48:12;;;;;;;9.95;1.83;;;1.80;99.90;;;;;;4952354;29;20047;-78
2022/01/21 03:50:37;;;;;;;6.35;1.15;;;1.80;99.90;;;;;;4952340;29;20447;-78
2022/01/21 03:53:04;;;;;;;3.67;1.30;;;1.90;99.90;;;;;;4953641;29;20039;-79
2022/01/21 03:55:34;;;;;;;8.65;1.17;;;1.90;99.90;;;;;;4952458;29;20536;-78
2022/01/21 03:58:01;;;;;;;7.07;1.40;;;1.90;99.90;;;;;;4952573;29;20055;-78
2022/01/21 04:00:29;;;;;;;7.65;1.60;;;1.80;99.90;;;;;;4936454;29;20538;-79
2022/01/21 04:02:56;;;;;;;7.30;1.10;;;1.80;99.90;;;;;;4936710;29;20110;-78
2022/01/21 04:05:22;;;;;;;11.05;1.48;;;1.80;99.90;;;;;;4952188;29;20054;-78
2022/01/21 04:07:48;;;;;;;11.30;1.65;;;1.80;99.90;;;;;;4952308;29;20094;-79
2022/01/21 04:10:14;;;;;;;3.75;0.93;;;1.80;99.90;;;;;;4952096;29;20035;-78
2022/01/21 04:12:39;;;;;;;7.30;1.30;;;1.70;99.90;;;;;;4952209;29;20067;-78
2022/01/21 04:15:06;;;;;;;14.75;2.95;;;1.60;99.90;;;;;;4936089;29;20065;-78
2022/01/21 04:17:31;;;;;;;8.77;1.23;;;1.60;99.90;;;;;;4952866;28;20521;-79
2022/01/21 04:19:57;;;;;;;7.43;1.13;;;1.50;99.90;;;;;;4959128;28;20040;-79
2022/01/21 04:22:22;;;;;;;13.52;1.77;;;1.50;99.90;;;;;;4958219;29;20097;-79
2022/01/21 04:24:49;;;;;;;7.43;0.98;;;1.40;99.90;;;;;;4959255;29;20063;-79
2022/01/21 04:27:18;;;;;;;11.85;1.90;;;1.40;99.90;;;;;;4941784;29;20177;-79
2022/01/21 04:29:44;;;;;;;5.22;1.50;;;1.30;99.90;;;;;;4957745;29;20039;-79
2022/01/21 04:32:10;;;;;;;7.45;1.30;;;1.30;99.90;;;;;;4959191;28;20522;-79
2022/01/21 04:34:36;;;;;;;6.90;1.48;;;1.20;99.90;;;;;;4959171;28;20070;-79
2022/01/21 04:37:06;;;;;;;4.68;1.30;;;1.20;99.90;;;;;;4941343;29;20043;-79
2022/01/21 04:39:36;;;;;;;7.50;1.27;;;1.20;99.90;;;;;;4958930;28;20042;-79
2022/01/21 04:47:32;;;;;;;10.52;1.15;;;1.10;99.90;;;;;;4959052;28;20062;-79
2022/01/21 04:49:57;;;;;;;5.60;1.20;;;1.20;99.90;;;;;;4957415;29;20043;-79
2022/01/21 04:52:23;;;;;;;7.43;1.25;;;1.10;99.90;;;;;;4957429;29;20553;-79
2022/01/21 04:54:50;;;;;;;4.03;1.23;;;1.20;99.90;;;;;;4957571;29;20047;-79
2022/01/21 04:57:16;;;;;;;11.43;1.30;;;1.20;99.90;;;;;;4941076;29;20051;-79
2022/01/21 04:59:42;;;;;;;5.88;1.17;;;1.20;99.90;;;;;;4956777;29;20524;-79
2022/01/21 05:02:08;;;;;;;6.78;1.13;;;1.20;99.90;;;;;;4941616;29;20082;-79
2022/01/21 05:04:36;;;;;;;8.65;1.90;;;1.20;99.90;;;;;;4957147;29;20399;-79
2022/01/21 05:07:05;;;;;;;4.13;1.40;;;1.20;99.90;;;;;;4972295;28;20061;-79
2022/01/21 05:09:33;;;;;;;8.68;1.67;;;1.20;99.90;;;;;;4957071;29;20085;-79
2022/01/21 05:12:03;;;;;;;6.47;1.30;;;1.20;99.90;;;;;;4958203;28;20054;-79
2022/01/21 05:14:51;;;;;;;6.68;1.38;;;1.20;99.90;;;;;;4958088;28;20053;-79
2022/01/21 05:17:16;;;;;;;5.93;1.05;;;1.10;99.90;;;;;;4956238;29;20509;-79
2022/01/21 05:19:42;;;;;;;4.00;1.00;;;1.20;99.90;;;;;;4957095;29;20039;-79
2022/01/21 05:22:08;;;;;;;9.48;2.20;;;1.20;99.90;;;;;;4957050;29;20087;-79
2022/01/21 05:24:34;;;;;;;7.88;1.40;;;1.20;99.90;;;;;;4956708;29;20043;-79
2022/01/21 05:27:01;;;;;;;7.13;1.08;;;1.10;99.90;;;;;;4957539;29;20138;-79
2022/01/21 05:29:33;;;;;;;12.48;2.50;;;1.10;99.90;;;;;;4957521;28;20059;-79
2022/01/21 05:32:00;;;;;;;6.85;1.38;;;1.10;99.90;;;;;;4956759;29;20039;-79
2022/01/21 05:34:26;;;;;;;11.52;1.35;;;1.10;99.90;;;;;;4956708;29;20058;-79
2022/01/21 05:36:52;;;;;;;9.35;1.70;;;1.00;99.90;;;;;;4940405;29;20043;-79
2022/01/21 05:39:18;;;;;;;6.60;1.05;;;1.00;99.90;;;;;;4956075;29;20050;-78
2022/01/21 05:41:48;;;;;;;9.80;2.20;;;1.00;99.90;;;;;;4955624;29;20463;-78
2022/01/21 05:47:01;;;;;;;5.10;1.35;;;0.90;99.90;;;;;;4957443;28;20442;-79
2022/01/21 05:49:29;;;;;;;4.75;1.20;;;0.80;99.90;;;;;;4956040;29;20394;-79
2022/01/21 05:52:09;;;;;;;3.78;0.80;;;0.80;99.90;;;;;;4956338;29;20495;-79
2022/01/21 05:54:36;;;;;;;7.63;1.10;;;0.80;99.90;;;;;;4959020;29;20051;-83
2022/01/21 05:57:05;;;;;;;8.13;2.60;;;0.80;99.90;;;;;;4942367;29;20138;-81
2022/01/21 05:59:31;;;;;;;17.60;6.85;;;0.80;99.90;;;;;;4958296;29;20148;-81
2022/01/21 06:01:57;;;;;;;8.75;2.75;;;0.80;99.90;;;;;;4958146;29;20047;-82
2022/01/21 06:04:22;;;;;;;6.63;1.80;;;0.80;99.90;;;;;;4943704;29;20090;-81
2022/01/21 06:06:48;;;;;;;7.10;2.22;;;0.80;99.90;;;;;;4960108;29;20035;-82
2022/01/21 06:09:13;;;;;;;8.15;1.15;;;0.80;99.90;;;;;;4943936;29;20047;-82
2022/01/21 06:11:39;;;;;;;9.18;1.50;;;0.80;99.90;;;;;;4958656;29;20035;-81
2022/01/21 06:14:05;;;;;;;7.43;1.10;;;0.80;99.90;;;;;;4957979;29;20594;-81
2022/01/21 06:16:30;;;;;;;6.72;1.33;;;0.80;99.90;;;;;;4958860;29;20557;-81
2022/01/21 06:18:56;;;;;;;26.23;2.53;;;0.90;99.90;;;;;;4959730;29;20039;-82
2022/01/21 06:21:22;;;;;;;6.65;1.63;;;0.90;99.90;;;;;;4973867;28;20106;-82
2022/01/21 06:23:48;;;;;;;6.55;1.38;;;0.90;99.90;;;;;;4954505;29;20043;-84
2022/01/21 06:26:14;;;;;;;10.52;1.27;;;0.90;99.90;;;;;;4953734;29;20045;-84
2022/01/21 06:28:40;;;;;;;10.18;1.25;;;0.90;99.90;;;;;;4950453;29;20038;-84
2022/01/21 06:31:06;;;;;;;6.82;1.45;;;0.90;99.90;;;;;;4934325;29;20521;-84
2022/01/21 06:33:31;;;;;;;4.97;1.05;;;0.90;99.90;;;;;;4934278;29;20090;-82
2022/01/21 06:35:57;;;;;;;8.18;1.23;;;1.00;99.90;;;;;;4934496;29;20071;-81
2022/01/21 06:38:25;;;;;;;5.70;1.05;;;1.10;99.90;;;;;;4934330;29;20047;-81
2022/01/21 06:40:51;;;;;;;18.33;2.15;;;1.10;99.90;;;;;;4943691;28;20109;-76
2022/01/21 06:43:17;;;;;;;8.48;1.33;;;1.10;99.90;;;;;;4969347;28;20050;-80
2022/01/21 06:45:43;;;;;;;16.90;6.57;;;1.20;99.90;;;;;;4955516;28;20050;-80
2022/01/21 06:48:09;;;;;;;37.00;14.10;;;1.30;99.90;;;;;;4945586;28;20043;-81
2022/01/21 06:50:38;;;;;;;8.00;1.58;;;1.30;99.90;;;;;;4944527;29;20118;-80
2022/01/21 06:53:04;;;;;;;8.48;1.52;;;1.30;99.90;;;;;;4956577;29;20063;-82
2022/01/21 06:55:30;;;;;;;11.95;1.50;;;1.30;99.90;;;;;;4956864;29;20086;-82
2022/01/21 06:57:56;;;;;;;4.43;1.25;;;1.30;99.90;;;;;;4955946;29;20043;-82
2022/01/21 07:00:22;;;;;;;5.40;1.20;;;1.20;99.90;;;;;;4961019;28;20043;-80
2022/01/21 07:02:50;;;;;;;8.43;1.23;;;1.20;99.90;;;;;;4960748;29;20050;-81
2022/01/21 07:05:17;;;;;;;5.50;1.35;;;1.20;99.90;;;;;;4945873;29;20031;-80
2022/01/21 07:07:43;;;;;;;4.63;1.30;;;1.20;99.90;;;;;;4946612;29;20487;-81
2022/01/21 07:10:14;;;;;;;13.43;1.48;;;1.20;99.90;;;;;;4961247;29;20031;-83
2022/01/21 07:12:40;;;;;;;7.80;1.10;;;1.10;99.90;;;;;;4960638;29;20039;-81
2022/01/21 07:15:09;;;;;;;7.13;0.75;;;1.10;99.90;;;;;;4960683;29;20279;-81
2022/01/21 07:17:35;;;;;;;4.47;1.05;;;1.00;99.90;;;;;;4944328;29;20041;-83
2022/01/21 07:20:01;;;;;;;5.75;1.25;;;1.00;99.90;;;;;;4945160;29;20039;-83
2022/01/21 07:22:27;;;;;;;9.38;1.42;;;1.10;99.90;;;;;;4948760;29;20039;-83
2022/01/21 07:24:52;;;;;;;5.60;1.20;;;0.90;99.90;;;;;;4946212;29;20409;-82
2022/01/21 07:27:18;;;;;;;7.18;1.00;;;0.90;99.90;;;;;;4961569;29;20035;-80
2022/01/21 07:29:43;;;;;;;5.65;1.27;;;0.90;99.90;;;;;;4946680;29;20034;-80
2022/01/21 07:32:09;;;;;;;7.13;1.40;;;0.80;99.90;;;;;;4962909;28;20078;-80
2022/01/21 07:34:35;;;;;;;10.65;1.10;;;0.80;99.90;;;;;;4960396;29;20046;-82
2022/01/21 07:37:01;;;;;;;3.30;1.23;;;0.90;99.90;;;;;;4944922;29;20077;-83
2022/01/21 07:39:27;;;;;;;27.48;9.40;;;0.90;99.90;;;;;;4958183;28;20143;-83
2022/01/21 07:41:53;;;;;;;7.13;1.40;;;0.80;99.90;;;;;;4956326;29;20050;-85
2022/01/21 07:44:19;;;;;;;17.70;6.40;;;0.90;99.90;;;;;;4952188;29;20503;-83
2022/01/21 07:46:45;;;;;;;7.18;1.35;;;0.80;99.90;;;;;;4938346;29;20386;-82
2022/01/21 07:49:11;;;;;;;4.78;1.20;;;0.90;99.90;;;;;;4954485;29;20039;-83
2022/01/21 07:51:37;;;;;;;7.43;1.27;;;1.00;99.90;;;;;;4939435;28;20047;-83
2022/01/21 07:54:03;;;;;;;6.45;1.10;;;1.00;99.90;;;;;;4958427;28;20038;-79
2022/01/21 07:56:30;;;;;;;11.55;1.15;;;1.00;99.90;;;;;;4957569;28;20040;-79
2022/01/21 07:58:55;;;;;;;8.43;1.23;;;1.10;99.90;;;;;;4956400;29;20047;-80
2022/01/21 08:01:21;;;;;;;3.53;0.98;;;1.10;99.90;;;;;;4940392;29;20038;-80
2022/01/21 08:03:47;;;;;;;7.13;1.73;;;1.20;99.90;;;;;;4956608;29;20086;-79
2022/01/21 08:06:13;;;;;;;7.68;1.00;;;1.20;99.90;;;;;;4957042;28;20071;-79
2022/01/21 08:08:38;;;;;;;11.23;1.63;;;1.20;99.90;;;;;;4940026;29;20471;-79
2022/01/21 08:11:04;;;;;;;8.65;0.90;;;1.30;99.90;;;;;;4957345;28;20058;-81
2022/01/21 08:13:29;;;;;;;2.85;1.10;;;1.30;99.90;;;;;;4957591;29;20035;-82
2022/01/21 08:15:56;;;;;;;7.18;1.83;;;1.30;99.90;;;;;;4957030;29;20047;-80
2022/01/21 08:18:22;;;;;;;17.13;1.52;;;1.30;99.90;;;;;;4958473;28;20047;-79
2022/01/21 08:20:47;;;;;;;8.32;1.65;;;1.40;99.90;;;;;;4956422;29;20057;-80
2022/01/21 08:23:13;;;;;;;17.15;5.15;;;1.50;99.90;;;;;;4957525;29;20047;-79
2022/01/21 08:25:40;;;;;;;19.60;7.03;;;1.50;99.90;;;;;;4957317;29;20042;-79
2022/01/21 08:28:06;;;;;;;6.90;2.15;;;1.50;99.90;;;;;;4958330;29;20411;-80
2022/01/21 08:30:32;;;;;;;13.35;3.03;;;1.50;99.90;;;;;;4959364;29;20733;-80
2022/01/21 08:32:58;;;;;;;4.97;1.60;;;1.50;99.90;;;;;;4960374;29;20039;-81
2022/01/21 08:35:24;;;;;;;8.45;1.58;;;1.60;99.90;;;;;;4960413;28;20422;-80
2022/01/21 08:37:53;;;;;;;10.68;2.40;;;1.60;99.90;;;;;;4960254;28;20454;-80
2022/01/21 08:40:20;;;;;;;4.78;1.33;;;1.60;99.90;;;;;;4959507;29;20074;-80
2022/01/21 08:42:46;;;;;;;10.38;1.30;;;1.70;99.90;;;;;;4958252;29;20472;-80
2022/01/21 08:45:12;;;;;;;7.82;1.77;;;1.70;99.90;;;;;;4943293;29;20078;-80
2022/01/21 08:47:40;;;;;;;6.95;1.58;;;1.80;99.90;;;;;;4981597;28;20085;-80
2022/01/21 08:50:09;;;;;;;6.15;1.75;;;1.90;99.90;;;;;;4964830;28;20089;-79
2022/01/21 08:52:40;;;;;;;6.55;1.48;;;2.00;99.90;;;;;;4960488;28;20383;-80
2022/01/21 08:55:08;;;;;;;8.63;1.53;;;2.00;99.90;;;;;;4956102;28;20474;-80
2022/01/21 08:57:36;;;;;;;4.38;1.40;;;2.10;99.90;;;;;;4945826;28;20294;-80
2022/01/21 09:00:05;;;;;;;8.40;1.27;;;2.20;99.90;;;;;;4957862;29;20433;-80
2022/01/21 09:02:31;;;;;;;12.77;1.98;;;2.30;99.90;;;;;;4939646;29;20050;-83
2022/01/21 09:04:56;;;;;;;9.35;1.65;;;2.40;99.90;;;;;;4956095;28;20065;-83
2022/01/21 09:07:22;;;;;;;6.43;1.48;;;2.50;99.90;;;;;;4954798;29;20128;-83
2022/01/21 09:09:48;;;;;;;7.85;3.00;;;2.60;99.90;;;;;;4954448;29;20090;-83
2022/01/21 09:12:13;;;;;;;3.83;1.10;;;2.70;99.90;;;;;;4957693;28;20038;-83
2022/01/21 09:14:39;;;;;;;9.90;2.78;;;2.80;99.90;;;;;;4939933;29;20036;-83
2022/01/21 09:17:04;;;;;;;7.88;2.08;;;3.00;99.90;;;;;;4939725;29;20043;-83
2022/01/21 09:19:32;;;;;;;6.32;1.50;;;3.10;99.90;;;;;;4955923;29;20043;-83
2022/01/21 09:22:02;;;;;;;9.15;1.58;;;3.10;99.90;;;;;;4939997;29;20410;-82
2022/01/21 09:24:28;;;;;;;10.05;2.63;;;3.20;99.90;;;;;;4957908;29;20078;-80
2022/01/21 09:26:53;;;;;;;22.23;7.07;;;3.30;99.90;;;;;;4954784;29;20098;-79
2022/01/21 09:29:19;;;;;;;9.10;2.15;;;3.30;99.90;;;;;;4955759;28;20050;-80
2022/01/21 09:31:44;;;;;;;13.35;2.20;;;3.40;99.90;;;;;;4954636;29;20035;-79
2022/01/21 09:34:10;;;;;;;6.38;1.58;;;3.40;99.90;;;;;;4954441;29;20047;-79
2022/01/21 09:36:36;;;;;;;8.70;1.60;;;3.30;99.90;;;;;;4955562;29;20047;-80
2022/01/21 09:39:03;;;;;;;6.80;1.77;;;3.40;99.90;;;;;;4955922;28;20043;-82
2022/01/21 09:41:29;;;;;;;11.40;1.80;;;3.40;99.90;;;;;;4960530;28;20042;-82
2022/01/21 09:43:56;;;;;;;8.40;1.98;;;3.30;99.90;;;;;;4960609;29;20039;-81
2022/01/21 09:46:34;;;;;;;5.97;1.77;;;3.30;99.90;;;;;;4959268;29;20490;-82
2022/01/21 09:49:07;;;;;;;12.75;1.88;;;3.20;99.90;;;;;;4965911;28;20098;-82
2022/01/21 09:51:37;;;;;;;6.95;1.55;;;3.40;99.90;;;;;;4958147;29;20031;-82
2022/01/21 09:54:06;;;;;;;10.98;1.45;;;3.40;99.90;;;;;;4941397;29;20075;-82
2022/01/21 09:56:37;;;;;;;19.50;2.35;;;3.50;99.90;;;;;;4960824;28;20031;-81
2022/01/21 09:59:03;;;;;;;12.65;1.98;;;3.50;99.90;;;;;;4958737;29;20442;-82
2022/01/21 10:01:28;;;;;;;5.45;1.27;;;3.60;99.90;;;;;;4959817;29;20112;-81
2022/01/21 10:03:54;;;;;;;10.13;1.15;;;3.70;99.90;;;;;;4959335;29;20043;-81
2022/01/21 10:06:24;;;;;;;11.70;1.25;;;3.80;99.90;;;;;;4958451;29;20233;-82
2022/01/21 10:08:54;;;;;;;4.32;1.40;;;3.90;99.90;;;;;;4953860;29;20051;-82
2022/01/21 10:11:21;;;;;;;15.60;1.65;;;4.00;99.90;;;;;;4957368;29;20046;-82
2022/01/21 10:13:48;;;;;;;8.27;1.50;;;4.10;99.90;;;;;;4956805;29;20111;-80
2022/01/21 10:16:14;;;;;;;7.88;1.55;;;4.20;99.90;;;;;;4959321;28;20064;-79
2022/01/21 10:19:05;;;;;;;6.32;0.80;;;4.30;99.90;;;;;;4954747;28;20122;-79
2022/01/21 10:21:37;;;;;;;6.85;1.25;;;4.40;99.90;;;;;;4938528;29;20047;-80
2022/01/21 10:24:16;;;;;;;8.05;0.90;;;4.50;99.90;;;;;;4953969;29;20043;-80
2022/01/21 10:26:48;;;;;;;10.40;1.67;;;4.50;99.90;;;;;;4945586;29;20035;-80
2022/01/21 10:29:14;;;;;;;8.90;3.20;;;4.50;99.90;;;;;;4952940;29;20110;-80
2022/01/21 10:32:00;;;;;;;68.63;26.92;;;4.50;99.90;;;;;;4955712;28;20540;-80
2022/01/21 10:34:33;;;;;;;17.85;4.35;;;4.60;99.90;;;;;;4980755;28;20371;-81
2022/01/21 10:37:06;;;;;;;6.85;1.50;;;4.70;99.90;;;;;;4958740;29;20047;-82
2022/01/21 10:39:34;;;;;;;16.38;2.35;;;4.70;99.90;;;;;;4962007;28;20035;-82
2022/01/21 10:42:01;;;;;;;10.07;1.50;;;4.60;99.90;;;;;;4958514;29;20047;-82
2022/01/21 10:44:30;;;;;;;10.20;1.33;;;4.60;99.90;;;;;;4959206;29;20119;-81
2022/01/21 10:47:11;;;;;;;13.70;1.52;;;4.70;99.90;;;;;;4957636;29;20079;-81
2022/01/21 10:49:43;;;;;;;16.85;2.97;;;4.80;99.90;;;;;;4941662;29;20410;-82
2022/01/21 10:52:11;;;;;;;12.00;2.45;;;4.90;99.90;;;;;;4956650;29;20046;-79
2022/01/21 10:54:49;;;;;;;10.35;2.13;;;4.90;99.90;;;;;;4947455;29;20406;-79
2022/01/21 10:57:17;;;;;;;16.80;2.40;;;5.00;99.90;;;;;;4968573;28;20143;-79
2022/01/21 10:59:49;;;;;;;12.77;2.83;;;5.20;99.90;;;;;;4964258;28;20042;-79
2022/01/21 11:02:25;;;;;;;22.65;3.25;;;5.30;99.90;;;;;;4962531;28;20046;-80
2022/01/21 11:04:52;;;;;;;8.65;2.15;;;5.40;99.90;;;;;;4959447;28;20075;-79
2022/01/21 11:07:43;;;;;;;15.70;3.47;;;5.50;99.90;;;;;;4953722;29;20505;-78
2022/01/21 11:10:09;;;;;;;50.05;22.02;;;5.40;99.90;;;;;;4953982;29;20055;-80
2022/01/21 11:12:34;;;;;;;17.77;3.08;;;5.40;99.90;;;;;;4957166;28;20039;-80
2022/01/21 11:15:03;;;;;;;18.27;3.42;;;5.40;99.90;;;;;;4953807;29;20490;-80
2022/01/21 11:17:29;;;;;;;16.15;3.75;;;5.40;99.90;;;;;;4954558;28;20075;-80
2022/01/21 11:20:01;;;;;;;14.00;3.83;;;5.40;99.90;;;;;;4955255;28;20071;-79
2022/01/21 11:22:28;;;;;;;;;;;5.50;99.90;;;;;;4938221;29;20049;-79
2022/01/21 11:24:55;;;;;;;13.98;3.30;;;5.50;99.90;;;;;;4953507;29;19919;-79
2022/01/21 11:27:21;;;;;;;13.50;3.25;;;5.80;99.90;;;;;;4952613;29;20059;-80
2022/01/21 11:29:47;;;;;;;12.98;3.13;;;5.70;99.90;;;;;;4954609;28;20516;-79
2022/01/21 11:32:14;;;;;;;13.73;3.22;;;5.80;99.90;;;;;;4953596;29;20047;-80
2022/01/21 11:34:42;;;;;;;20.15;3.90;;;5.80;99.90;;;;;;4937594;29;20054;-80
2022/01/21 11:37:08;;;;;;;11.85;3.40;;;5.90;99.90;;;;;;4953103;29;20047;-79
2022/01/21 11:39:34;;;;;;;14.40;2.85;;;5.90;99.90;;;;;;4955202;28;20098;-80
2022/01/21 11:42:01;;;;;;;15.75;2.10;;;6.00;99.90;;;;;;4959047;28;20039;-80
2022/01/21 11:44:29;;;;;;;11.23;2.00;;;6.00;99.90;;;;;;4955179;29;20047;-81
2022/01/21 11:47:15;;;;;;;12.82;2.17;;;6.00;99.90;;;;;;4955534;29;20066;-75
2022/01/21 11:49:57;;;;;;;13.15;2.03;;;6.00;99.90;;;;;;4955651;29;20053;-80
2022/01/21 11:52:23;;;;;;;10.77;1.55;;;6.00;99.90;;;;;;4939693;29;20036;-80
2022/01/21 11:54:49;;;;;;;13.75;2.33;;;6.00;99.90;;;;;;4939256;29;20038;-80
2022/01/21 11:57:25;;;;;;;7.30;1.45;;;6.00;99.90;;;;;;4953969;29;20039;-83
2022/01/21 11:59:58;;;;;;;4.75;1.10;;;6.10;99.90;;;;;;4936597;29;20541;-82
2022/01/21 12:02:26;;;;;;;8.75;1.65;;;6.20;99.90;;;;;;4952627;29;20043;-82
2022/01/21 12:05:10;;;;;;;9.57;1.50;;;6.20;99.90;;;;;;4952405;29;20418;-83
2022/01/21 12:07:45;;;;;;;9.93;1.35;;;6.30;99.90;;;;;;4936747;29;20126;-83
2022/01/21 12:10:18;;;;;;;9.50;1.25;;;6.30;99.90;;;;;;4951981;29;20276;-82
2022/01/21 12:13:03;;;;;;;6.82;1.50;;;6.40;99.90;;;;;;4952687;29;20094;-82
2022/01/21 12:18:53;;;;;;;8.40;1.77;;;6.50;99.90;;;;;;4952215;29;20094;-83
2022/01/21 12:21:28;;;;;;;8.40;1.70;;;6.60;99.90;;;;;;4954733;29;20051;-81
2022/01/21 12:23:54;;;;;;;12.65;1.60;;;6.60;99.90;;;;;;4938077;29;20047;-81
2022/01/21 12:26:24;;;;;;;9.02;1.77;;;6.70;99.90;;;;;;4954273;29;20486;-80
2022/01/21 12:28:53;;;;;;;12.38;1.38;;;6.60;99.90;;;;;;4938389;29;20516;-82
2022/01/21 12:31:22;;;;;;;10.70;1.30;;;6.60;99.90;;;;;;4953367;29;20043;-79
2022/01/21 12:34:06;;;;;;;4.22;1.27;;;6.70;99.90;;;;;;4953681;28;20047;-79
2022/01/21 12:36:40;;;;;;;7.93;1.92;;;6.70;99.90;;;;;;4951893;29;20043;-79
2022/01/21 12:39:42;;;;;;;7.68;0.90;;;6.70;99.90;;;;;;4952954;28;20553;-78
2022/01/21 12:42:20;;;;;;;9.10;1.50;;;6.70;99.90;;;;;;4939830;29;20403;-78
2022/01/21 12:44:46;;;;;;;6.35;1.00;;;6.80;99.90;;;;;;4939503;29;20369;-79
2022/01/21 12:47:35;;;;;;;6.90;1.33;;;6.90;99.90;;;;;;4955466;29;20040;-77
2022/01/21 12:50:10;;;;;;;3.53;0.98;;;6.90;99.90;;;;;;4955872;29;20051;-77
2022/01/21 12:53:07;;;;;;;6.72;1.55;;;6.90;99.90;;;;;;4955785;29;20047;-77
2022/01/21 12:58:40;;;;;;;5.60;1.15;;;7.00;99.90;;;;;;4955656;29;20518;-77
2022/01/21 13:01:11;;;;;;;4.63;1.08;;;6.90;99.90;;;;;;4956266;29;20168;-77
2022/01/21 13:04:02;;;;;;;9.43;1.13;;;6.90;99.90;;;;;;4956641;29;20086;-77
2022/01/21 13:06:41;;;;;;;7.53;1.00;;;6.90;99.90;;;;;;4956431;29;20383;-77
2022/01/21 13:09:08;;;;;;;6.53;1.20;;;6.90;99.90;;;;;;4955708;29;20063;-77
2022/01/21 13:11:38;;;;;;;20.52;2.45;;;6.90;99.90;;;;;;4955891;29;20047;-77
2022/01/21 13:14:34;;;;;;;11.88;1.15;;;6.80;99.90;;;;;;4955767;29;20483;-77
2022/01/21 13:17:15;;;;;;;13.93;1.50;;;6.90;99.90;;;;;;4955296;29;20120;-77
2022/01/21 13:19:52;;;;;;;15.88;1.92;;;6.80;99.90;;;;;;4940390;29;20043;-77
2022/01/21 13:22:17;;;;;;;9.45;1.55;;;6.80;99.90;;;;;;4956172;29;20122;-77
2022/01/21 13:25:03;;;;;;;10.35;1.45;;;6.90;99.90;;;;;;4955568;29;20616;-77
2022/01/21 13:27:29;;;;;;;5.85;1.75;;;6.80;99.90;;;;;;4955504;29;20079;-77
2022/01/21 13:30:09;;;;;;;14.98;2.60;;;6.90;99.90;;;;;;4955243;29;20075;-77
2022/01/21 13:32:34;;;;;;;7.30;1.75;;;6.90;99.90;;;;;;4954878;29;20042;-77
2022/01/21 13:35:14;;;;;;;9.05;1.50;;;6.90;99.90;;;;;;4938998;29;20047;-77
2022/01/21 13:37:42;;;;;;;8.73;1.95;;;6.90;99.90;;;;;;4955011;29;20062;-77
2022/01/21 13:40:09;;;;;;;14.77;1.63;;;6.80;99.90;;;;;;4954608;29;20051;-76
2022/01/21 13:42:36;;;;;;;8.52;2.15;;;6.80;99.90;;;;;;4954455;29;20047;-76
2022/01/21 13:45:08;;;;;;;14.27;1.80;;;6.90;99.90;;;;;;4954252;29;20062;-77
2022/01/21 13:47:44;;;;;;;9.15;1.30;;;6.80;99.90;;;;;;4954484;29;20395;-76
2022/01/21 13:50:11;;;;;;;7.10;1.15;;;6.90;99.90;;;;;;4953951;28;20086;-77